Terminal Aerodrome Forecast
Issued by NWS

Home | Current Version | Previous Version | Graphics & Text | Print | Product List | Glossary On
Versions: 1 2 3 4 5 6 7 8 9 10 11 12 13 14 15
000
FTUS43 KMPX 171720
TAFAXN
TAF
KAXN 171720Z 1718/1818 15009KT P6SM SKC
     FM172000 25010KT P6SM SKC
     FM172200 28010KT P6SM FEW150
     FM181000 28006KT P6SM SCT150=

USA.gov is the U.S. government's official web portal to all federal, state and local government web resources and services.